Overview Statistics Trail Chart Weather Telemetry Raw packets
 

This is the latest recevied weather packets stored in our database for station/object N7WGJ. If no packets are shown the sender has not sent any weather packets the latest 10 day(s).

<< 12 13 14 15 16 17 18 >>
Time Temp. Humidity Pressure Rain* Wind** Luminosity Snow
1788489092 16.11° C 75% 1010.4 hPa 0 mm - - -
1788488492 16.67° C 72% 1010.4 hPa 0 mm - - -
1788487888 17.22° C 69% 1010.4 hPa 0 mm - - -
1788487306 17.22° C 69% 1010.4 hPa 0 mm - - -
1788486698 17.22° C 70% 1010.3 hPa 0 mm - - -
1788486101 17.22° C 70% 1010.3 hPa 0 mm - - -
1788485499 17.22° C 70% 1010.1 hPa 0 mm - - -
1788484899 17.22° C 70% 1010 hPa 0 mm - - -
1788484301 17.22° C 69% 1010 hPa 0 mm - - -
1788483705 17.78° C 68% 1009.9 hPa 0 mm - - -
1788483093 17.78° C 67% 1010 hPa 0 mm - - -
1788482496 17.78° C 67% 1010 hPa 0 mm - - -
1788481900 17.78° C 73% 1009.8 hPa 0 mm - - -
1788481304 17.78° C 73% 1009.9 hPa 0 mm - - -
1788480686 17.78° C 75% 1010 hPa 0 mm - - -
1788480106 17.22° C 75% 1010.1 hPa 0 mm - - -
1788479500 17.22° C 78% 1010.1 hPa 0 mm - - -
1788478884 16.67° C 79% 1010.1 hPa 0 mm - - -
1788478288 16.67° C 77% 1010 hPa 0 mm - - -
1788477686 17.22° C 73% 1010.1 hPa 0 mm - - -
1788477089 18.33° C 67% 1010.1 hPa 0 mm - - -
1788476508 18.33° C 65% 1009.9 hPa 0 mm - - -
1788475902 18.33° C 65% 1009.9 hPa 0 mm - - -
1788475302 18.33° C 64% 1009.8 hPa 0 mm - - -
1788474704 18.89° C 63% 1009.8 hPa 0 mm - - -

* Rain latest hour (hover to see other rain measurements)
** Current wind speed in m/s (hover to see current wind gust speed)